Terminal Aerodrome Forecast
Issued by NWS Pueblo, CO

Home | Current Version | Previous Version | Text Only | Print | Product List | Glossary On
Versions: 1 2 3 4 5 6 7 8 9 10 11 12 13 14 15 16 17 18 19 20 21 22 23 24 25 26 27 28 29 30 31 32 33 34 35 36
000
FTUS45 KPUB 191138
TAFCOS
TAF
KCOS 191138Z 1912/2012 VRB04KT P6SM SCT015
      TEMPO 1912/1915 5SM BR BKN015
     FM191600 16007KT P6SM FEW130
     FM200200 VRB04KT P6SM SCT200=

USA.gov is the U.S. government's official web portal to all federal, state and local government web resources and services.